Phuket, Thailand

3:47 AM ICT on July 31, 2016 (GMT +0700)
Cherngtalay, Thalang | | Change Station

Elev 39 ft 8.00 °N, 98.31 °E | Updated 7 minutes ago

Partly Cloudy
Partly Cloudy
79.7 °F
Feels Like 85 °F
N
0.0
Wind Variable Wind from NW
Gusts 1.0 mph

Today
High -- | Low -- °F
--% Chance of Precip.
Yesterday
High -- | Low -- °F
Precip. -- in
Pressure 29.83 in
Visibility 5.6 miles
Clouds Few 2000 ft
Heat Index 85 °F
Dew Point 76 °F
Humidity 88%
Rainfall 0.00 in
Snow Depth Not available.
6:18 AM 6:47 PM
Waning Crescent, 11% visible
METAR VTSG 302000Z VRB02KT 9000 FEW020 23/22 Q1010 A2983 INFO Y
Pressure 29.83 in
Visibility 5.6 miles
Clouds Few 2000 ft
Heat Index 85 °F
Dew Point 76 °F
Humidity 88%
Rainfall 0.00 in
Snow Depth Not available.
6:18 AM 6:47 PM
Waning Crescent, 11% visible
METAR VTSG 302000Z VRB02KT 9000 FEW020 23/22 Q1010 A2983 INFO Y

10-Day Weather Forecast

No radar image for this location.
×

Almanac

Astronomy

Jul. 31, 2016 Rise Set
Actual Time
Civil Twilight
Nautical Twilight
Astronomical Twilight
Moon
Length of Visible Light
Length of Day
Tomorrow will be .
, % of the Moon is Illuminated

Today's Extremes

Country Highs Country Lows

Community

WunderPhotos

Upload Photos

1,928,632 photos uploaded!

WunderBlog® & News

Nearby

Air Quality

  Air Quality AQ Index Pollutant
Not available.

Snow Depth

Station Depth Elevation

Earthquake Activity

City Distance Mag. Time & Date
Minimum magnitude displayed is 2.5.

Coastal Water Temperatures

Place Temperature

Stations

Nearby Weather Stations

Station Location Temp. Windchill Dew Point Humidity Wind Precip. Elev Updated Type